Time;durP1;ratioP1;P1;durP2;ratioP2;P2;SDS_P1;SDS_P2;PMS_P1;PMS_P2;Temp;Humidity;BMP_temperature;BMP_pressure;BME280_temperature;BME280_humidity;BME280_pressure;Samples;Min_cycle;Max_cycle;Signal;HPM_P1;HPM_P2
2022/02/13 00:01:36;;;;;;;;;;;128.90;2150.40;;;;;;5081568;28;19916;-81
2022/02/13 00:04:02;;;;;;;;;;;128.80;2176.00;;;;;;5099225;28;19912;-76
2022/02/13 00:06:28;;;;;;;;;;;128.80;2176.00;;;;;;5078370;28;20261;-84
2022/02/13 00:08:54;;;;;;;;;;;128.60;2176.00;;;;;;5098926;28;20018;-79
2022/02/13 00:11:20;;;;;;;;;;;128.40;2227.20;;;;;;5081145;28;20344;-85
2022/02/13 00:13:49;;;;;;;;;;;128.50;2227.20;;;;;;5080661;28;19923;-75
2022/02/13 00:16:15;;;;;;;;;;;128.50;2227.20;;;;;;5099129;28;19908;-82
2022/02/13 00:18:40;;;;;;;;;;;128.40;2201.60;;;;;;5081044;28;19916;-77
2022/02/13 00:21:06;;;;;;;;;;;128.50;2227.20;;;;;;5098843;28;19908;-85
2022/02/13 00:23:31;;;;;;;;;;;128.50;2227.20;;;;;;5099239;28;19918;-82
2022/02/13 00:25:57;;;;;;;;;;;128.50;2227.20;;;;;;5078747;28;19957;-75
2022/02/13 00:28:22;;;;;;;;;;;128.40;2227.20;;;;;;5077401;28;19915;-76
2022/02/13 00:30:48;;;;;;;;;;;128.40;2252.80;;;;;;5076893;28;20279;-86
2022/02/13 00:33:14;;;;;;;;;;;128.30;2252.80;;;;;;5095418;28;19912;-84
2022/02/13 00:35:41;;;;;;;;;;;128.30;2252.80;;;;;;5077847;28;19908;-76
2022/02/13 00:38:08;;;;;;;;;;;128.20;2252.80;;;;;;5077798;28;19966;-84
2022/02/13 00:40:33;;;;;;;;;;;128.20;2252.80;;;;;;5077444;28;19911;-75
2022/02/13 00:42:59;;;;;;;;;;;128.00;2252.80;;;;;;5077390;28;20237;-84
2022/02/13 00:45:25;;;;;;;;;;;128.00;2252.80;;;;;;5095654;28;19916;-84
2022/02/13 00:47:50;;;;;;;;;;;128.10;2252.80;;;;;;5110811;28;19920;-84
2022/02/13 00:50:16;;;;;;;;;;;128.20;2252.80;;;;;;5077144;28;20427;-84
2022/02/13 00:52:41;;;;;;;;;;;128.20;2252.80;;;;;;5076921;28;19927;-84
2022/02/13 00:55:07;;;;;;;;;;;103.30;2227.20;;;;;;5111237;28;20015;-75
2022/02/13 00:57:33;;;;;;;;;;;103.10;2227.20;;;;;;5076838;28;19908;-79
2022/02/13 00:59:58;;;;;;;;;;;103.20;2227.20;;;;;;5099987;28;20002;-84
2022/02/13 01:02:24;;;;;;;;;;;103.00;2227.20;;;;;;5095067;28;20371;-76
2022/02/13 01:04:50;;;;;;;;;;;103.00;2227.20;;;;;;5076509;28;19919;-85
2022/02/13 01:07:15;;;;;;;;;;;102.90;2227.20;;;;;;5110804;28;20037;-84
2022/02/13 01:09:41;;;;;;;;;;;102.90;2227.20;;;;;;5094780;28;20368;-75
2022/02/13 01:12:07;;;;;;;;;;;103.00;2227.20;;;;;;5094831;28;19923;-77
2022/02/13 01:14:32;;;;;;;;;;;103.10;2227.20;;;;;;5076213;28;19920;-76
2022/02/13 01:16:58;;;;;;;;;;;103.10;2227.20;;;;;;5095168;28;19915;-85
2022/02/13 01:19:24;;;;;;;;;;;103.20;2227.20;;;;;;5094383;28;19916;-80
2022/02/13 01:21:49;;;;;;;;;;;103.10;2227.20;;;;;;5094795;28;20314;-77
2022/02/13 01:24:15;;;;;;;;;;;103.10;2227.20;;;;;;5076589;28;19908;-85
2022/02/13 01:26:40;;;;;;;;;;;103.20;2227.20;;;;;;5110590;28;19908;-84
2022/02/13 01:29:06;;;;;;;;;;;103.10;2227.20;;;;;;5076377;28;19908;-84
2022/02/13 01:31:34;;;;;;;;;;;103.00;2227.20;;;;;;5092073;28;19913;-85
2022/02/13 01:33:59;;;;;;;;;;;103.00;2227.20;;;;;;5076293;28;19923;-85
2022/02/13 01:36:25;;;;;;;;;;;103.00;2227.20;;;;;;5094445;28;19908;-75
2022/02/13 01:38:50;;;;;;;;;;;103.00;2227.20;;;;;;5093075;28;19916;-80
2022/02/13 01:41:17;;;;;;;;;;;103.00;2227.20;;;;;;5076086;28;20283;-83
2022/02/13 01:43:43;;;;;;;;;;;103.20;2227.20;;;;;;5094214;28;20009;-76
2022/02/13 01:46:09;;;;;;;;;;;102.80;2227.20;;;;;;5075490;28;20352;-80
2022/02/13 01:48:35;;;;;;;;;;;102.50;2227.20;;;;;;5094265;28;19948;-83
2022/02/13 01:51:01;;;;;;;;;;;77.70;2227.20;;;;;;5076178;28;19963;-82
2022/02/13 01:53:27;;;;;;;;;;;102.50;2227.20;;;;;;5076052;28;19954;-77
2022/02/13 01:55:53;;;;;;;;;;;102.70;2227.20;;;;;;5093692;28;20169;-81
2022/02/13 01:58:19;;;;;;;;;;;102.70;2227.20;;;;;;5093981;28;20001;-85
2022/02/13 02:00:44;;;;;;;;;;;102.80;2227.20;;;;;;5076036;28;19934;-84
2022/02/13 02:03:10;;;;;;;;;;;102.90;2227.20;;;;;;5093819;28;19931;-85
2022/02/13 02:05:36;;;;;;;;;;;102.80;2227.20;;;;;;5075539;28;19908;-80
2022/02/13 02:08:02;;;;;;;;;;;102.70;2227.20;;;;;;5075558;28;19920;-82
2022/02/13 02:10:27;;;;;;;;;;;102.70;2227.20;;;;;;5076068;28;19908;-84
2022/02/13 02:12:53;;;;;;;;;;;102.70;2227.20;;;;;;5109291;28;19912;-76
2022/02/13 02:15:18;;;;;;;;;;;102.70;2227.20;;;;;;5093971;28;19908;-75
2022/02/13 02:17:44;;;;;;;;;;;102.80;2227.20;;;;;;5075612;28;19928;-82
2022/02/13 02:20:10;;;;;;;;;;;102.80;2227.20;;;;;;5093442;28;20249;-83
2022/02/13 02:22:36;;;;;;;;;;;102.90;2227.20;;;;;;5093083;28;19908;-75
2022/02/13 02:25:02;;;;;;;;;;;102.90;2227.20;;;;;;5075385;28;19919;-75
2022/02/13 02:27:27;;;;;;;;;;;102.70;2227.20;;;;;;5093301;28;19914;-80
2022/02/13 02:29:53;;;;;;;;;;;102.80;2227.20;;;;;;5075105;28;19915;-76
2022/02/13 02:32:18;;;;;;;;;;;102.80;2227.20;;;;;;5093280;28;19908;-76
2022/02/13 02:34:44;;;;;;;;;;;102.60;2227.20;;;;;;5074938;28;20333;-80
2022/02/13 02:37:10;;;;;;;;;;;102.50;2227.20;;;;;;5075228;28;19923;-84
2022/02/13 02:39:36;;;;;;;;;;;77.70;2227.20;;;;;;5074701;28;20360;-76
2022/02/13 02:42:02;;;;;;;;;;;77.60;2227.20;;;;;;5074504;28;19935;-77
2022/02/13 02:44:28;;;;;;;;;;;77.50;2227.20;;;;;;5074692;28;19966;-83
2022/02/13 02:46:53;;;;;;;;;;;77.50;2227.20;;;;;;5075079;28;20355;-80
2022/02/13 02:49:19;;;;;;;;;;;77.40;2227.20;;;;;;5074673;28;19962;-84
2022/02/13 02:51:44;;;;;;;;;;;77.50;2227.20;;;;;;5108150;28;19908;-75
2022/02/13 02:54:10;;;;;;;;;;;77.60;2227.20;;;;;;5074505;28;20058;-83
2022/02/13 02:56:36;;;;;;;;;;;77.50;2227.20;;;;;;5090077;28;19915;-76
2022/02/13 02:59:02;;;;;;;;;;;77.50;2227.20;;;;;;5092752;28;19908;-76
2022/02/13 03:01:28;;;;;;;;;;;77.60;2227.20;;;;;;5075095;28;19918;-75
2022/02/13 03:03:53;;;;;;;;;;;77.70;2227.20;;;;;;5092640;28;19991;-76
2022/02/13 03:06:19;;;;;;;;;;;102.50;2227.20;;;;;;5092621;28;20360;-84
2022/02/13 03:08:45;;;;;;;;;;;102.50;2227.20;;;;;;5074997;28;20431;-76
2022/02/13 03:11:10;;;;;;;;;;;102.50;2227.20;;;;;;5093209;28;19961;-84
2022/02/13 03:13:36;;;;;;;;;;;102.60;2227.20;;;;;;5074087;28;19923;-75
2022/02/13 03:16:02;;;;;;;;;;;102.60;2227.20;;;;;;5073979;28;19908;-83
2022/02/13 03:18:30;;;;;;;;;;;102.60;2227.20;;;;;;5108513;28;20372;-76
2022/02/13 03:20:56;;;;;;;;;;;102.40;2227.20;;;;;;5074599;28;19915;-75
2022/02/13 03:23:22;;;;;;;;;;;77.50;2227.20;;;;;;5092920;28;19912;-83
2022/02/13 03:25:47;;;;;;;;;;;77.40;2227.20;;;;;;5074690;28;20315;-83
2022/02/13 03:28:13;;;;;;;;;;;77.30;2227.20;;;;;;5074588;28;19912;-83
2022/02/13 03:30:38;;;;;;;;;;;77.20;2227.20;;;;;;5092257;28;19908;-78
2022/02/13 03:33:04;;;;;;;;;;;77.20;2227.20;;;;;;5108410;28;19919;-83
2022/02/13 03:35:29;;;;;;;;;;;77.10;2227.20;;;;;;5074813;28;19913;-84
2022/02/13 03:37:55;;;;;;;;;;;77.00;2227.20;;;;;;5092296;28;19917;-83
2022/02/13 03:40:21;;;;;;;;;;;77.10;2227.20;;;;;;5092627;28;19908;-84
2022/02/13 03:42:46;;;;;;;;;;;77.10;2227.20;;;;;;5074602;28;19962;-84
2022/02/13 03:45:13;;;;;;;;;;;77.00;2227.20;;;;;;5108601;28;19919;-84
2022/02/13 03:47:39;;;;;;;;;;;77.10;2227.20;;;;;;5071205;28;19917;-83
2022/02/13 03:50:05;;;;;;;;;;;77.20;2227.20;;;;;;5092549;28;19908;-84
2022/02/13 03:52:31;;;;;;;;;;;77.10;2227.20;;;;;;5092088;28;19955;-83
2022/02/13 03:54:59;;;;;;;;;;;77.10;2227.20;;;;;;5074530;28;20418;-79
2022/02/13 03:57:25;;;;;;;;;;;77.40;2227.20;;;;;;5092447;28;19909;-83
2022/02/13 03:59:51;;;;;;;;;;;77.50;2227.20;;;;;;5074177;28;20367;-78
2022/02/13 04:02:16;;;;;;;;;;;102.40;2227.20;;;;;;5076078;28;20362;-84
2022/02/13 04:04:42;;;;;;;;;;;77.70;2227.20;;;;;;5078004;28;19919;-84
2022/02/13 04:07:07;;;;;;;;;;;77.70;2227.20;;;;;;5096052;28;20380;-76
2022/02/13 04:09:33;;;;;;;;;;;77.60;2227.20;;;;;;5112266;28;19952;-76
2022/02/13 04:11:58;;;;;;;;;;;77.70;2227.20;;;;;;5078000;28;20368;-84
2022/02/13 04:14:24;;;;;;;;;;;77.70;2227.20;;;;;;5077719;28;19927;-84
2022/02/13 04:16:50;;;;;;;;;;;77.70;2227.20;;;;;;5095977;28;19953;-80
2022/02/13 04:19:15;;;;;;;;;;;102.40;2227.20;;;;;;5095834;28;19931;-84
2022/02/13 04:21:41;;;;;;;;;;;77.60;2227.20;;;;;;5077928;28;19960;-76
2022/02/13 04:24:06;;;;;;;;;;;77.70;2227.20;;;;;;5077441;28;19908;-84
2022/02/13 04:26:32;;;;;;;;;;;77.60;2227.20;;;;;;5077775;28;19920;-75
2022/02/13 04:28:57;;;;;;;;;;;77.60;2227.20;;;;;;5095989;28;19912;-76
2022/02/13 04:31:23;;;;;;;;;;;77.60;2227.20;;;;;;5095562;28;19959;-77
2022/02/13 04:33:49;;;;;;;;;;;77.60;2227.20;;;;;;5095658;28;19916;-84
2022/02/13 04:36:15;;;;;;;;;;;77.50;2227.20;;;;;;5077289;28;19908;-84
2022/02/13 04:38:40;;;;;;;;;;;77.40;2227.20;;;;;;5111502;28;20371;-84
2022/02/13 04:41:06;;;;;;;;;;;77.40;2227.20;;;;;;5077825;28;19908;-84
2022/02/13 04:43:33;;;;;;;;;;;77.30;2227.20;;;;;;5077045;28;19912;-82
2022/02/13 04:45:58;;;;;;;;;;;77.20;2227.20;;;;;;5095144;28;20450;-84
2022/02/13 04:48:24;;;;;;;;;;;77.20;2227.20;;;;;;5076807;28;20341;-84
2022/02/13 04:50:50;;;;;;;;;;;77.20;2227.20;;;;;;5077263;28;19908;-76
2022/02/13 04:53:15;;;;;;;;;;;77.30;2227.20;;;;;;5111247;28;19916;-76
2022/02/13 04:55:41;;;;;;;;;;;77.20;2227.20;;;;;;5076976;28;19908;-82
2022/02/13 04:58:06;;;;;;;;;;;77.30;2227.20;;;;;;5077002;28;19924;-80
2022/02/13 05:00:32;;;;;;;;;;;77.30;2227.20;;;;;;5077058;28;19951;-84
2022/02/13 05:02:58;;;;;;;;;;;77.30;2227.20;;;;;;5110966;28;19915;-83
2022/02/13 05:05:24;;;;;;;;;;;77.40;2227.20;;;;;;5077023;28;19916;-83
2022/02/13 05:07:49;;;;;;;;;;;77.40;2227.20;;;;;;5094368;28;19920;-75
2022/02/13 05:10:15;;;;;;;;;;;77.40;2227.20;;;;;;5095192;28;19930;-83
2022/02/13 05:12:40;;;;;;;;;;;77.50;2227.20;;;;;;5076035;28;19912;-83
2022/02/13 05:15:07;;;;;;;;;;;77.50;2227.20;;;;;;5077079;28;19912;-75
2022/02/13 05:17:33;;;;;;;;;;;77.60;2227.20;;;;;;5076559;28;19928;-79
2022/02/13 05:19:59;;;;;;;;;;;77.60;2227.20;;;;;;5076513;28;19908;-84
2022/02/13 05:22:24;;;;;;;;;;;77.60;2227.20;;;;;;5109980;28;19954;-76
2022/02/13 05:24:50;;;;;;;;;;;77.50;2227.20;;;;;;5076471;28;19955;-86
2022/02/13 05:27:17;;;;;;;;;;;77.50;2227.20;;;;;;5111042;28;19923;-84
2022/02/13 05:29:43;;;;;;;;;;;77.50;2227.20;;;;;;5076676;28;19912;-79
2022/02/13 05:32:09;;;;;;;;;;;77.50;2227.20;;;;;;5076618;28;19908;-84
2022/02/13 05:34:34;;;;;;;;;;;77.50;2227.20;;;;;;5093745;28;19924;-85
2022/02/13 05:37:00;;;;;;;;;;;77.60;2227.20;;;;;;5076124;28;20054;-85
2022/02/13 05:39:26;;;;;;;;;;;77.60;2227.20;;;;;;5094266;28;20045;-84
2022/02/13 05:41:52;;;;;;;;;;;77.60;2227.20;;;;;;5094409;28;20482;-84
2022/02/13 05:44:18;;;;;;;;;;;77.60;2227.20;;;;;;5094114;28;20276;-79
2022/02/13 05:46:43;;;;;;;;;;;77.60;2227.20;;;;;;5094161;28;19908;-75
2022/02/13 05:49:09;;;;;;;;;;;77.70;2227.20;;;;;;5075946;28;19965;-84
2022/02/13 05:51:35;;;;;;;;;;;77.70;2227.20;;;;;;5075766;28;20368;-75
2022/02/13 05:54:01;;;;;;;;;;;77.70;2227.20;;;;;;5075850;28;19971;-76
2022/02/13 05:56:27;;;;;;;;;;;77.70;2227.20;;;;;;5075832;28;19908;-85
2022/02/13 05:58:52;;;;;;;;;;;77.70;2227.20;;;;;;5076063;28;19912;-82
2022/02/13 06:01:19;;;;;;;;;;;102.40;2227.20;;;;;;5109715;28;19958;-84
2022/02/13 06:03:45;;;;;;;;;;;102.50;2227.20;;;;;;5076134;28;19998;-81
2022/02/13 06:06:11;;;;;;;;;;;102.40;2227.20;;;;;;5075921;28;19943;-77
2022/02/13 06:08:36;;;;;;;;;;;102.50;2227.20;;;;;;5094135;28;20273;-84
2022/02/13 06:11:02;;;;;;;;;;;102.70;2227.20;;;;;;5075663;28;19935;-83
2022/02/13 06:13:28;;;;;;;;;;;102.70;2227.20;;;;;;5075697;28;20284;-84
2022/02/13 06:15:54;;;;;;;;;;;102.80;2227.20;;;;;;5093159;28;19915;-79
2022/02/13 06:18:19;;;;;;;;;;;102.90;2227.20;;;;;;5093772;28;20284;-84
2022/02/13 06:20:45;;;;;;;;;;;103.00;2227.20;;;;;;5109455;28;19959;-76
2022/02/13 06:23:11;;;;;;;;;;;103.00;2227.20;;;;;;5093647;28;20364;-79
2022/02/13 06:25:37;;;;;;;;;;;103.10;2227.20;;;;;;5109205;28;20331;-75
2022/02/13 06:28:03;;;;;;;;;;;103.10;2227.20;;;;;;5075204;28;20387;-78
2022/02/13 06:30:29;;;;;;;;;;;103.20;2227.20;;;;;;5093487;28;19931;-84
2022/02/13 06:32:57;;;;;;;;;;;103.20;2227.20;;;;;;5109327;28;20355;-80
2022/02/13 06:35:24;;;;;;;;;;;103.20;2227.20;;;;;;5093623;28;20338;-83
2022/02/13 06:37:50;;;;;;;;;;;103.20;2227.20;;;;;;5074718;28;19908;-75
2022/02/13 06:40:15;;;;;;;;;;;103.30;2227.20;;;;;;5092997;28;19930;-77
2022/02/13 06:42:41;;;;;;;;;;;128.00;2252.80;;;;;;5092946;28;19916;-84
2022/02/13 06:45:07;;;;;;;;;;;128.10;2252.80;;;;;;5106376;28;19934;-76
2022/02/13 06:47:33;;;;;;;;;;;128.00;2252.80;;;;;;5074743;28;19928;-78
2022/02/13 06:49:59;;;;;;;;;;;128.00;2252.80;;;;;;5075016;28;19908;-76
2022/02/13 06:52:24;;;;;;;;;;;128.10;2252.80;;;;;;5093243;28;19930;-84
2022/02/13 06:54:50;;;;;;;;;;;128.00;2252.80;;;;;;5092766;28;19912;-75
2022/02/13 06:57:15;;;;;;;;;;;128.00;2252.80;;;;;;5074825;28;19968;-81
2022/02/13 06:59:41;;;;;;;;;;;128.00;2252.80;;;;;;5075056;28;19915;-83
2022/02/13 07:02:10;;;;;;;;;;;128.10;2252.80;;;;;;5092919;28;19908;-84
2022/02/13 07:04:38;;;;;;;;;;;128.10;2252.80;;;;;;5074924;28;19939;-85
2022/02/13 07:07:04;;;;;;;;;;;128.10;2252.80;;;;;;5108936;28;19920;-76
2022/02/13 07:09:30;;;;;;;;;;;128.10;2252.80;;;;;;5075509;28;19977;-85
2022/02/13 07:11:58;;;;;;;;;;;128.10;2252.80;;;;;;5075276;28;20018;-75
2022/02/13 07:14:24;;;;;;;;;;;128.20;2252.80;;;;;;5075279;28;19923;-80
2022/02/13 07:16:49;;;;;;;;;;;128.20;2252.80;;;;;;5075081;28;19909;-75
2022/02/13 07:19:15;;;;;;;;;;;128.20;2252.80;;;;;;5093347;28;20380;-79
2022/02/13 07:21:41;;;;;;;;;;;128.30;2252.80;;;;;;5093201;28;19908;-75
2022/02/13 07:24:06;;;;;;;;;;;128.30;2252.80;;;;;;5093244;28;19911;-74
2022/02/13 07:26:32;;;;;;;;;;;128.30;2252.80;;;;;;5093086;28;19947;-86
2022/02/13 07:29:00;;;;;;;;;;;128.40;2252.80;;;;;;5092902;28;19919;-74
2022/02/13 07:31:30;;;;;;;;;;;128.30;2252.80;;;;;;5074500;28;19930;-79
2022/02/13 07:33:56;;;;;;;;;;;128.50;2252.80;;;;;;5093050;28;19916;-74
2022/02/13 07:36:22;;;;;;;;;;;128.40;2252.80;;;;;;5094833;28;19915;-77
2022/02/13 07:38:47;;;;;;;;;;;128.40;2252.80;;;;;;5096632;28;20389;-80
2022/02/13 07:41:13;;;;;;;;;;;128.40;2252.80;;;;;;5097319;28;19908;-78
2022/02/13 07:43:38;;;;;;;;;;;128.50;2252.80;;;;;;5096999;28;20311;-77
2022/02/13 07:46:04;;;;;;;;;;;128.40;2252.80;;;;;;5078876;28;19912;-79
2022/02/13 07:48:30;;;;;;;;;;;128.40;2252.80;;;;;;5078689;28;19916;-81
2022/02/13 07:50:56;;;;;;;;;;;128.50;2252.80;;;;;;5078748;28;19919;-81
2022/02/13 07:53:22;;;;;;;;;;;128.50;2252.80;;;;;;5096544;28;19939;-77
2022/02/13 07:55:47;;;;;;;;;;;128.40;2252.80;;;;;;5097059;28;19908;-78
2022/02/13 07:58:13;;;;;;;;;;;128.50;2252.80;;;;;;5097035;28;19908;-80
2022/02/13 08:00:38;;;;;;;;;;;128.50;2252.80;;;;;;5078135;28;20303;-78
2022/02/13 08:03:04;;;;;;;;;;;128.60;2252.80;;;;;;5096640;28;19916;-76
2022/02/13 08:05:30;;;;;;;;;;;128.50;2252.80;;;;;;5096475;28;20376;-79
2022/02/13 08:07:55;;;;;;;;;;;128.50;2252.80;;;;;;5077722;28;19920;-76
2022/02/13 08:10:21;;;;;;;;;;;128.60;2252.80;;;;;;5111361;28;19920;-80
2022/02/13 08:12:47;;;;;;;;;;;128.60;2252.80;;;;;;5096020;28;19916;-79
2022/02/13 08:15:13;;;;;;;;;;;128.50;2252.80;;;;;;5096054;28;19924;-79
2022/02/13 08:17:39;;;;;;;;;;;128.50;2252.80;;;;;;5077778;28;19927;-75
2022/02/13 08:20:07;;;;;;;;;;;128.50;2252.80;;;;;;5095943;28;20667;-76
2022/02/13 08:22:34;;;;;;;;;;;128.60;2252.80;;;;;;5095662;28;20002;-79
2022/02/13 08:24:59;;;;;;;;;;;128.70;2252.80;;;;;;5095691;28;19908;-80
2022/02/13 08:27:25;;;;;;;;;;;128.80;2252.80;;;;;;5077888;28;19915;-80
2022/02/13 08:29:51;;;;;;;;;;;128.80;2252.80;;;;;;5111492;28;19922;-81
2022/02/13 08:32:18;;;;;;;;;;;153.60;2252.80;;;;;;5095243;28;20007;-76
2022/02/13 08:34:44;;;;;;;;;;;153.70;2252.80;;;;;;5096480;28;19920;-80
2022/02/13 08:37:09;;;;;;;;;;;153.60;2252.80;;;;;;5095818;28;20261;-80
2022/02/13 08:39:35;;;;;;;;;;;153.70;2252.80;;;;;;5112061;28;19908;-76
2022/02/13 08:42:00;;;;;;;;;;;153.70;2252.80;;;;;;5095872;28;19953;-75
2022/02/13 08:44:26;;;;;;;;;;;153.60;2252.80;;;;;;5112071;28;19976;-76
2022/02/13 08:46:52;;;;;;;;;;;153.80;2252.80;;;;;;5111293;28;19908;-76
2022/02/13 08:49:17;;;;;;;;;;;153.70;2252.80;;;;;;5111101;28;19957;-80
2022/02/13 08:51:44;;;;;;;;;;;153.90;2252.80;;;;;;5095891;28;19951;-79
2022/02/13 08:54:09;;;;;;;;;;;153.80;2252.80;;;;;;5095782;28;20429;-82
2022/02/13 08:56:35;;;;;;;;;;;153.90;2252.80;;;;;;5111251;28;19909;-77
2022/02/13 08:59:01;;;;;;;;;;;154.00;2252.80;;;;;;5077561;28;20368;-84
2022/02/13 09:01:27;;;;;;;;;;;154.10;2252.80;;;;;;5095526;28;19961;-75
2022/02/13 09:03:52;;;;;;;;;;;154.10;2252.80;;;;;;5095191;28;19916;-82
2022/02/13 09:06:18;;;;;;;;;;;154.10;2252.80;;;;;;5095494;28;19909;-76
2022/02/13 09:08:43;;;;;;;;;;;154.30;2252.80;;;;;;5095242;28;20482;-76
2022/02/13 09:11:09;;;;;;;;;;;154.40;2252.80;;;;;;5095335;28;20318;-83
2022/02/13 09:13:35;;;;;;;;;;;179.20;2252.80;;;;;;5076887;28;19916;-76
2022/02/13 09:16:00;;;;;;;;;;;154.50;2252.80;;;;;;5094719;28;19916;-85
2022/02/13 09:18:26;;;;;;;;;;;179.30;2252.80;;;;;;5094263;28;19975;-75
2022/02/13 09:20:52;;;;;;;;;;;179.50;2252.80;;;;;;5076890;28;19922;-79
2022/02/13 09:23:17;;;;;;;;;;;179.50;2252.80;;;;;;5110171;28;19912;-76
2022/02/13 09:25:44;;;;;;;;;;;179.70;2252.80;;;;;;5075990;28;19913;-83
2022/02/13 09:28:10;;;;;;;;;;;179.70;2252.80;;;;;;5076080;28;19961;-77
2022/02/13 09:30:35;;;;;;;;;;;179.80;2252.80;;;;;;5094345;28;19972;-76
2022/02/13 09:33:01;;;;;;;;;;;180.10;2252.80;;;;;;5109899;28;20006;-81
2022/02/13 09:35:27;;;;;;;;;;;204.90;2252.80;;;;;;5110109;28;20301;-83
2022/02/13 09:37:52;;;;;;;;;;;204.90;2252.80;;;;;;5110436;28;19920;-78
2022/02/13 09:40:18;;;;;;;;;;;204.90;2252.80;;;;;;5110087;28;20337;-76
2022/02/13 09:42:47;;;;;;;;;;;205.00;2252.80;;;;;;5076288;28;19908;-76
2022/02/13 09:45:12;;;;;;;;;;;205.00;2252.80;;;;;;5109988;28;19915;-81
2022/02/13 09:47:38;;;;;;;;;;;205.20;2227.20;;;;;;5094204;28;19920;-77
2022/02/13 09:50:04;;;;;;;;;;;205.30;2252.80;;;;;;5094102;28;19931;-77
2022/02/13 09:52:30;;;;;;;;;;;205.40;2252.80;;;;;;5076517;28;19915;-81
2022/02/13 09:54:56;;;;;;;;;;;205.30;2201.60;;;;;;5076739;28;19912;-81
2022/02/13 10:00:06;;;;;;;;;;;205.50;2176.00;;;;;;5093941;28;19916;-82
2022/02/13 10:02:35;;;;;;;;;;;205.70;2099.20;;;;;;5076021;28;19912;-82
2022/02/13 10:05:01;;;;;;;;;;;230.40;2124.80;;;;;;5076216;28;19935;-84
2022/02/13 10:07:27;;;;;;;;;;;205.70;2073.60;;;;;;5093541;28;19999;-84
2022/02/13 10:09:59;;;;;;;;;;;205.60;2073.60;;;;;;5075593;28;19954;-76
2022/02/13 10:12:38;;;;;;;;;;;205.70;2073.60;;;;;;5075407;28;19919;-77
2022/02/13 10:15:23;;;;;;;;;;;205.70;2022.40;;;;;;5074967;28;20048;-82
2022/02/13 10:17:56;;;;;;;;;;;205.70;1971.20;;;;;;5075833;28;19923;-83
2022/02/13 10:20:26;;;;;;;;;;;230.40;1971.20;;;;;;5076013;28;19908;-76
2022/02/13 10:22:52;;;;;;;;;;;230.50;2022.40;;;;;;5075469;28;19912;-76
2022/02/13 10:25:17;;;;;;;;;;;205.70;1996.80;;;;;;5075544;28;19953;-82
2022/02/13 10:27:44;;;;;;;;;;;230.50;2022.40;;;;;;5109078;28;19971;-76
2022/02/13 10:30:10;;;;;;;;;;;230.70;1996.80;;;;;;5075547;28;19908;-82
2022/02/13 10:32:39;;;;;;;;;;;230.70;1920.00;;;;;;5092861;28;19915;-81
2022/02/13 10:35:12;;;;;;;;;;;230.80;1945.60;;;;;;5075096;28;19919;-85
2022/02/13 10:37:45;;;;;;;;;;;231.00;1945.60;;;;;;5106532;28;19915;-80
2022/02/13 10:40:15;;;;;;;;;;;230.90;1945.60;;;;;;5089772;28;19912;-75
2022/02/13 10:42:41;;;;;;;;;;;230.70;1920.00;;;;;;5075135;28;19915;-79
2022/02/13 10:45:19;;;;;;;;;;;230.90;1945.60;;;;;;5092594;28;19912;-81
2022/02/13 10:47:45;;;;;;;;;;;231.20;1920.00;;;;;;5091056;28;19920;-82
2022/02/13 10:50:11;;;;;;;;;;;231.30;1868.80;;;;;;5092800;28;19916;-76
2022/02/13 10:52:37;;;;;;;;;;;231.20;1843.20;;;;;;5073578;28;19927;-80
2022/02/13 10:55:03;;;;;;;;;;;231.30;1843.20;;;;;;5090260;28;19916;-76
2022/02/13 10:57:29;;;;;;;;;;;231.20;1843.20;;;;;;5091983;28;20399;-80
2022/02/13 10:59:54;;;;;;;;;;;231.20;1868.80;;;;;;5092531;28;20000;-76
2022/02/13 11:02:20;;;;;;;;;;;231.30;1843.20;;;;;;5093031;28;19915;-75
2022/02/13 11:04:46;;;;;;;;;;;256.20;1843.20;;;;;;5074856;28;19955;-77
2022/02/13 11:07:13;;;;;;;;;;;256.40;1817.60;;;;;;5074602;28;19920;-79
2022/02/13 11:09:39;;;;;;;;;;;256.50;1792.00;;;;;;5075372;28;19995;-82
2022/02/13 11:12:05;;;;;;;;;;;256.30;1817.60;;;;;;5092094;28;19958;-82
2022/02/13 11:14:47;;;;;;;;;;;256.40;1817.60;;;;;;5075154;28;20380;-83
2022/02/13 11:17:31;;;;;;;;;;;256.50;1817.60;;;;;;5092841;28;19954;-75
2022/02/13 11:19:57;;;;;;;;;;;256.70;1792.00;;;;;;5074795;28;20363;-75
2022/02/13 11:22:35;;;;;;;;;;;281.60;1792.00;;;;;;5092697;28;19916;-75
2022/02/13 11:25:00;;;;;;;;;;;281.60;1792.00;;;;;;5073601;28;19915;-79
2022/02/13 11:27:26;;;;;;;;;;;256.60;1740.80;;;;;;5075092;28;19908;-76
2022/02/13 11:30:01;;;;;;;;;;;256.70;1792.00;;;;;;5074845;28;19916;-81
2022/02/13 11:32:43;;;;;;;;;;;281.60;1792.00;;;;;;5092515;28;19947;-82
2022/02/13 11:35:10;;;;;;;;;;;281.70;1792.00;;;;;;5107706;28;20034;-79
2022/02/13 11:37:49;;;;;;;;;;;281.90;1766.40;;;;;;5092342;28;19942;-81
2022/02/13 11:40:33;;;;;;;;;;;281.60;1792.00;;;;;;5092815;28;19938;-82
2022/02/13 11:42:58;;;;;;;;;;;281.80;1766.40;;;;;;5092657;28;20342;-74
2022/02/13 11:45:24;;;;;;;;;;;281.90;1792.00;;;;;;5092861;28;19908;-84
2022/02/13 11:47:50;;;;;;;;;;;281.80;1766.40;;;;;;5092592;28;19916;-86
2022/02/13 11:50:24;;;;;;;;;;;281.90;1766.40;;;;;;5074740;28;19986;-80
2022/02/13 11:52:55;;;;;;;;;;;281.70;1766.40;;;;;;5074604;28;19915;-84
2022/02/13 11:55:21;;;;;;;;;;;281.70;1792.00;;;;;;5074851;28;19922;-76
2022/02/13 11:57:57;;;;;;;;;;;256.80;1792.00;;;;;;5074945;28;19908;-85
2022/02/13 12:00:35;;;;;;;;;;;281.70;1792.00;;;;;;5074477;28;19912;-76
2022/02/13 12:03:16;;;;;;;;;;;281.80;1766.40;;;;;;5074460;28;19959;-75
2022/02/13 12:05:42;;;;;;;;;;;282.10;1766.40;;;;;;5074703;28;20012;-83
2022/02/13 12:08:08;;;;;;;;;;;282.00;1792.00;;;;;;5074080;28;19920;-79
2022/02/13 12:10:36;;;;;;;;;;;282.20;1740.80;;;;;;5074881;28;19951;-76
2022/02/13 12:13:09;;;;;;;;;;;282.10;1740.80;;;;;;5074477;28;20448;-87
2022/02/13 12:15:35;;;;;;;;;;;281.60;1740.80;;;;;;5074243;28;19912;-81
2022/02/13 12:18:05;;;;;;;;;;;281.70;1766.40;;;;;;5091942;28;20002;-76
2022/02/13 12:20:31;;;;;;;;;;;281.70;1766.40;;;;;;5092514;28;19909;-87
2022/02/13 12:23:06;;;;;;;;;;;281.60;1766.40;;;;;;5075505;28;20261;-75
2022/02/13 12:25:35;;;;;;;;;;;256.90;1740.80;;;;;;5096210;28;19912;-80
2022/02/13 12:28:01;;;;;;;;;;;256.50;1766.40;;;;;;5078097;28;19915;-76
2022/02/13 12:30:27;;;;;;;;;;;256.20;1792.00;;;;;;5078211;28;19913;-86
2022/02/13 12:33:00;;;;;;;;;;;256.60;1817.60;;;;;;5078036;28;20382;-77
2022/02/13 12:35:29;;;;;;;;;;;256.70;1792.00;;;;;;5077942;28;19955;-84
2022/02/13 12:37:55;;;;;;;;;;;256.90;1766.40;;;;;;5078193;28;20311;-76
2022/02/13 12:40:23;;;;;;;;;;;256.80;1766.40;;;;;;5096443;28;19908;-84
2022/02/13 12:42:52;;;;;;;;;;;256.70;1766.40;;;;;;5078373;28;19908;-85
2022/02/13 12:45:19;;;;;;;;;;;256.50;1792.00;;;;;;5077824;28;19908;-84
2022/02/13 12:47:46;;;;;;;;;;;256.30;1792.00;;;;;;5095516;28;20379;-76
2022/02/13 12:50:13;;;;;;;;;;;256.50;1817.60;;;;;;5077502;28;19931;-81
2022/02/13 12:52:39;;;;;;;;;;;256.90;1792.00;;;;;;5095376;28;20009;-77
2022/02/13 12:55:06;;;;;;;;;;;256.90;1792.00;;;;;;5095708;28;19912;-76
2022/02/13 12:57:31;;;;;;;;;;;256.50;1792.00;;;;;;5095373;28;19908;-79
2022/02/13 12:59:57;;;;;;;;;;;256.60;1792.00;;;;;;5076860;28;20003;-76
2022/02/13 13:02:24;;;;;;;;;;;256.50;1792.00;;;;;;5095571;28;19908;-80
2022/02/13 13:04:50;;;;;;;;;;;256.20;1792.00;;;;;;5076614;28;19994;-76
2022/02/13 13:07:16;;;;;;;;;;;256.30;1817.60;;;;;;5077370;28;20300;-81
2022/02/13 13:09:42;;;;;;;;;;;256.50;1817.60;;;;;;5077098;28;19919;-80
2022/02/13 13:12:14;;;;;;;;;;;256.30;1817.60;;;;;;5076957;28;19908;-78
2022/02/13 13:14:39;;;;;;;;;;;256.10;1817.60;;;;;;5094912;28;19916;-76
2022/02/13 13:17:08;;;;;;;;;;;256.10;1843.20;;;;;;5094496;28;20026;-80
2022/02/13 13:19:34;;;;;;;;;;;256.30;1843.20;;;;;;5093808;28;20363;-76
2022/02/13 13:22:15;;;;;;;;;;;256.00;1843.20;;;;;;5076412;28;19966;-79
2022/02/13 13:24:43;;;;;;;;;;;231.30;1843.20;;;;;;5093591;28;19912;-79
2022/02/13 13:27:16;;;;;;;;;;;256.10;1843.20;;;;;;5073258;28;19912;-80
2022/02/13 13:29:42;;;;;;;;;;;256.10;1843.20;;;;;;5094461;28;19912;-80
2022/02/13 13:32:08;;;;;;;;;;;256.00;1843.20;;;;;;5093865;28;19908;-77
2022/02/13 13:34:35;;;;;;;;;;;256.00;1843.20;;;;;;5093610;28;19923;-79
2022/02/13 13:37:20;;;;;;;;;;;231.20;1843.20;;;;;;5094280;28;19907;-79
2022/02/13 13:39:56;;;;;;;;;;;231.00;1868.80;;;;;;5093540;28;19912;-77
2022/02/13 13:42:27;;;;;;;;;;;231.10;1894.40;;;;;;5076294;28;20429;-79
2022/02/13 13:45:00;;;;;;;;;;;230.90;1894.40;;;;;;5091789;28;19914;-79